createdAt,value
2022-08-17T00:01:16.764Z,100187.94
2022-08-17T00:03:46.542Z,100187.09
2022-08-17T00:06:16.994Z,100188.94
2022-08-17T00:08:46.031Z,100189.97
2022-08-17T00:11:15.884Z,100185.56
2022-08-17T00:13:45.466Z,100179.63
2022-08-17T00:16:16.625Z,100178.34
2022-08-17T00:19:06.162Z,100187.28
2022-08-17T00:22:00.015Z,100197.78
2022-08-17T00:24:20.214Z,100187.94
2022-08-17T00:26:46.912Z,100184.84
2022-08-17T00:29:19.430Z,100157.19
2022-08-17T00:31:48.589Z,100165.03
2022-08-17T00:34:15.195Z,100188.16
2022-08-17T00:36:41.839Z,100191.66
2022-08-17T00:39:08.402Z,100185.66
2022-08-17T00:41:35.142Z,100185.66
2022-08-17T00:44:05.100Z,100178.88
2022-08-17T00:46:33.856Z,100168.75
2022-08-17T00:49:02.378Z,100177.81
2022-08-17T00:51:32.986Z,100157.59
2022-08-17T00:54:05.140Z,100180.91
2022-08-17T00:56:36.025Z,100176.78
2022-08-17T00:59:05.057Z,100180.69
2022-08-17T01:01:32.633Z,100179.84
2022-08-17T01:04:01.202Z,100178.38
2022-08-17T01:06:29.897Z,100158.97
2022-08-17T01:08:58.973Z,100174.88
2022-08-17T01:11:25.804Z,100150.72
2022-08-17T01:13:52.685Z,100154.78
2022-08-17T01:16:22.983Z,100176.66
2022-08-17T01:18:53.021Z,100170.50
2022-08-17T01:21:26.560Z,100173.78
2022-08-17T01:23:55.552Z,100172.34
2022-08-17T01:26:22.738Z,100142.34
2022-08-17T01:28:54.687Z,100131.81
2022-08-17T01:31:24.984Z,100179.03
2022-08-17T01:33:51.673Z,100182.72
2022-08-17T01:36:18.425Z,100154.25
2022-08-17T01:38:45.131Z,100176.56
2022-08-17T01:41:15.527Z,100158.38
2022-08-17T01:43:47.379Z,100162.25
2022-08-17T01:46:16.192Z,100184.88
2022-08-17T01:48:42.761Z,100179.13
2022-08-17T01:51:09.561Z,100188.06
2022-08-17T01:53:40.331Z,100189.84
2022-08-17T01:56:12.299Z,100192.75
2022-08-17T01:58:42.067Z,100191.03
2022-08-17T02:01:10.372Z,100190.78
2022-08-17T02:03:37.823Z,100183.28
2022-08-17T02:06:06.649Z,100183.50
2022-08-17T02:09:03.074Z,100171.84
2022-08-17T02:11:32.382Z,100173.22
2022-08-17T02:14:03.383Z,100189.31
2022-08-17T02:16:37.845Z,100191.72
2022-08-17T02:19:06.880Z,100179.44
2022-08-17T02:21:33.588Z,100171.19
2022-08-17T02:24:00.519Z,100152.97
2022-08-17T02:26:27.228Z,100173.56
2022-08-17T02:28:53.850Z,100184.13
2022-08-17T02:31:21.835Z,100180.19
2022-08-17T02:34:03.295Z,100189.56
2022-08-17T02:36:32.996Z,100181.03
2022-08-17T02:39:00.258Z,100186.56
2022-08-17T02:41:26.922Z,100169.63
2022-08-17T02:43:53.470Z,100167.63
2022-08-17T02:46:20.152Z,100173.53
2022-08-17T02:48:48.082Z,100172.88
2022-08-17T02:51:14.893Z,100180.25
2022-08-17T02:53:41.460Z,100177.28
2022-08-17T02:56:08.127Z,100181.53
2022-08-17T02:58:36.101Z,100169.31
2022-08-17T03:01:04.623Z,100179.41
2022-08-17T03:03:31.560Z,100178.41
2022-08-17T03:05:59.898Z,100181.25
2022-08-17T03:08:26.874Z,100185.75
2022-08-17T03:10:53.771Z,100185.09
2022-08-17T03:13:20.433Z,100153.00
2022-08-17T03:15:48.074Z,100178.41
2022-08-17T03:18:19.103Z,100167.44
2022-08-17T03:20:52.638Z,100168.00
2022-08-17T03:23:24.116Z,100169.34
2022-08-17T03:25:52.996Z,100169.75
2022-08-17T03:28:20.315Z,100170.31
2022-08-17T03:30:47.011Z,100169.66
2022-08-17T03:33:13.777Z,100171.47
2022-08-17T03:35:41.309Z,100171.31
2022-08-17T03:38:09.052Z,100166.97
2022-08-17T03:40:57.766Z,100173.78
2022-08-17T03:43:25.227Z,100182.97
2022-08-17T03:45:51.978Z,100138.47
2022-08-17T03:48:20.494Z,100187.84
2022-08-17T03:50:47.099Z,100186.47
2022-08-17T03:53:17.332Z,100163.09
2022-08-17T03:55:45.286Z,100174.22
2022-08-17T03:58:11.899Z,100187.75
2022-08-17T04:00:39.741Z,100180.41
2022-08-17T04:03:06.512Z,100189.41
2022-08-17T04:05:35.609Z,100187.41
2022-08-17T04:08:02.298Z,100174.53
2022-08-17T04:10:33.921Z,100193.91
2022-08-17T04:13:06.499Z,100194.28
2022-08-17T04:15:33.074Z,100180.97
2022-08-17T04:18:00.085Z,100181.97
2022-08-17T04:20:26.696Z,100195.38
2022-08-17T04:22:58.075Z,100183.25
2022-08-17T04:25:26.035Z,100197.94
2022-08-17T04:27:52.739Z,100207.44
2022-08-17T04:30:21.343Z,100186.84
2022-08-17T04:33:04.467Z,100194.94
2022-08-17T04:35:36.367Z,100200.25
2022-08-17T04:38:02.947Z,100195.75
2022-08-17T04:40:29.544Z,100199.91
2022-08-17T04:43:01.205Z,100144.91
2022-08-17T04:45:32.264Z,100195.22
2022-08-17T04:47:59.777Z,100201.84
2022-08-17T04:50:26.390Z,100194.69
2022-08-17T04:52:52.990Z,100208.47
2022-08-17T04:55:19.628Z,100197.44
2022-08-17T04:57:46.289Z,100203.03
2022-08-17T05:00:13.552Z,100186.16
2022-08-17T05:02:49.925Z,100204.78
2022-08-17T05:05:18.966Z,100204.59
2022-08-17T05:07:45.535Z,100206.53
2022-08-17T05:10:12.296Z,100195.50
2022-08-17T05:12:38.882Z,100190.22
2022-08-17T05:15:11.461Z,100178.00
2022-08-17T05:17:38.102Z,100189.31
2022-08-17T05:20:07.294Z,100196.94
2022-08-17T05:22:33.912Z,100196.75
2022-08-17T05:25:02.708Z,100193.28
2022-08-17T05:27:35.149Z,100187.72
2022-08-17T05:30:02.237Z,100148.69
2022-08-17T05:32:37.869Z,100181.09
2022-08-17T05:35:09.137Z,100162.22
2022-08-17T05:37:35.767Z,100182.25
2022-08-17T05:40:02.551Z,100189.59
2022-08-17T05:42:29.187Z,100168.53
2022-08-17T05:44:57.685Z,100183.84
2022-08-17T05:47:26.111Z,100183.59
2022-08-17T05:49:53.841Z,100186.19
2022-08-17T05:52:33.287Z,100187.91
2022-08-17T05:55:13.676Z,100188.59
2022-08-17T05:57:54.086Z,100190.09
2022-08-17T06:00:30.673Z,100190.16
2022-08-17T06:03:18.667Z,100193.75
2022-08-17T06:05:58.115Z,100195.72
2022-08-17T06:08:34.099Z,100185.47
2022-08-17T06:11:10.382Z,100181.47
2022-08-17T06:13:55.927Z,100192.66
2022-08-17T06:16:26.315Z,100176.41
2022-08-17T06:19:05.635Z,100174.81
2022-08-17T06:21:36.086Z,100186.19
2022-08-17T06:24:07.189Z,100185.03
2022-08-17T06:26:43.051Z,100177.81
2022-08-17T06:29:20.875Z,100169.44
2022-08-17T06:31:47.572Z,100172.34
2022-08-17T06:34:14.243Z,100166.19
2022-08-17T06:36:52.059Z,100181.06
2022-08-17T06:39:34.320Z,100180.25
2022-08-17T06:43:02.331Z,100185.63
2022-08-17T06:45:07.146Z,100188.34
2022-08-17T06:47:42.384Z,100179.91
2022-08-17T06:50:17.925Z,100180.28
2022-08-17T06:52:52.646Z,100192.25
2022-08-17T06:55:25.182Z,100197.00
2022-08-17T06:57:58.067Z,100199.28
2022-08-17T07:00:29.711Z,100193.28
2022-08-17T07:03:02.523Z,100192.81
2022-08-17T07:05:35.411Z,100190.91
2022-08-17T07:08:08.446Z,100203.41
2022-08-17T07:10:42.591Z,100191.84
2022-08-17T07:13:22.287Z,100209.72
2022-08-17T07:15:56.414Z,100201.03
2022-08-17T07:18:26.439Z,100209.06
2022-08-17T07:20:58.092Z,100214.34
2022-08-17T07:23:34.851Z,100225.94
2022-08-17T07:26:05.800Z,100225.38
2022-08-17T07:28:33.709Z,100225.63
2022-08-17T07:31:00.540Z,100236.34
2022-08-17T07:44:19.118Z,100244.03
2022-08-17T07:46:50.438Z,100250.38
2022-08-17T07:49:21.836Z,100245.88
2022-08-17T07:52:47.710Z,100240.69
2022-08-17T07:54:47.771Z,100226.75
2022-08-17T07:57:31.447Z,100242.22
2022-08-17T08:00:16.884Z,100234.50
2022-08-17T08:02:46.342Z,100255.34
2022-08-17T08:05:30.672Z,100237.06
2022-08-17T08:08:23.834Z,100248.56
2022-08-17T08:10:59.965Z,100229.66
2022-08-17T08:13:28.539Z,100264.06
2022-08-17T08:16:14.599Z,100258.66
2022-08-17T08:18:55.327Z,100248.22
2022-08-17T08:21:36.299Z,100254.31
2022-08-17T08:24:23.318Z,100259.59
2022-08-17T08:27:02.155Z,100266.38
2022-08-17T08:29:40.255Z,100264.50
2022-08-17T08:32:16.009Z,100274.88
2022-08-17T08:35:02.608Z,100274.28
2022-08-17T08:37:42.657Z,100270.88
2022-08-17T08:40:43.126Z,100276.41
2022-08-17T08:43:21.203Z,100270.28
2022-08-17T08:46:01.072Z,100276.03
2022-08-17T08:48:58.694Z,100291.81
2022-08-17T08:51:37.638Z,100296.97
2022-08-17T08:54:15.556Z,100295.09
2022-08-17T08:57:19.480Z,100299.06
2022-08-17T08:59:44.312Z,100280.75
2022-08-17T09:02:23.881Z,100297.16
2022-08-17T09:05:16.388Z,100293.53
2022-08-17T09:07:51.832Z,100293.66
2022-08-17T09:10:29.413Z,100288.13
2022-08-17T09:13:09.820Z,100291.06
2022-08-17T09:15:41.984Z,100272.59
2022-08-17T09:19:01.293Z,100276.84
2022-08-17T09:21:07.530Z,100286.69
2022-08-17T09:23:39.016Z,100284.94
2022-08-17T09:26:11.710Z,100291.63
2022-08-17T09:28:41.063Z,100303.47
2022-08-17T09:31:11.281Z,100295.50
2022-08-17T09:33:43.159Z,100305.81
2022-08-17T09:36:17.547Z,100297.13
2022-08-17T09:38:55.056Z,100294.75
2022-08-17T09:41:26.623Z,100288.38
2022-08-17T09:44:06.401Z,100288.59
2022-08-17T09:46:40.762Z,100291.09
2022-08-17T09:49:14.618Z,100289.97
2022-08-17T09:51:48.503Z,100287.50
2022-08-17T09:54:38.587Z,100278.25
2022-08-17T09:57:35.823Z,100284.00
2022-08-17T10:00:14.502Z,100284.16
2022-08-17T10:03:15.954Z,100288.13
2022-08-17T10:05:43.953Z,100282.13
2022-08-17T10:08:21.817Z,100270.91
2022-08-17T10:10:56.352Z,100289.59
2022-08-17T10:13:35.652Z,100280.94
2022-08-17T10:16:12.128Z,100252.59
2022-08-17T10:18:47.563Z,100287.63
2022-08-17T10:21:16.508Z,100280.03
2022-08-17T10:23:47.122Z,100286.09
2022-08-17T10:26:18.717Z,100283.91
2022-08-17T10:28:53.772Z,100288.97
2022-08-17T10:31:35.457Z,100296.34
2022-08-17T10:34:32.271Z,100298.53
2022-08-17T10:37:28.715Z,100305.03
2022-08-17T10:40:19.257Z,100315.91
2022-08-17T10:42:50.041Z,100303.94
2022-08-17T10:45:19.735Z,100303.28
2022-08-17T10:47:58.115Z,100300.06
2022-08-17T10:50:57.278Z,100315.84
2022-08-17T10:53:50.098Z,100318.69
2022-08-17T10:56:43.582Z,100313.56
2022-08-17T10:59:50.433Z,100304.94
2022-08-17T11:02:24.404Z,100302.06
2022-08-17T11:05:01.171Z,100304.53
2022-08-17T11:07:44.667Z,100300.28
2022-08-17T11:10:27.585Z,100304.78
2022-08-17T11:13:03.856Z,100295.53
2022-08-17T11:15:47.499Z,100283.28
2022-08-17T11:18:28.574Z,100300.69
2022-08-17T11:21:17.353Z,100281.34
2022-08-17T11:23:56.610Z,100303.16
2022-08-17T11:26:27.301Z,100292.41
2022-08-17T11:29:08.211Z,100280.16
2022-08-17T11:31:37.971Z,100262.81
2022-08-17T11:34:13.450Z,100282.59
2022-08-17T11:37:18.998Z,100270.59
2022-08-17T11:40:00.262Z,100283.69
2022-08-17T11:42:39.407Z,100287.81
2022-08-17T11:45:32.366Z,100261.19
2022-08-17T11:48:27.206Z,100291.19
2022-08-17T11:50:59.931Z,100292.53
2022-08-17T11:54:21.608Z,100287.47
2022-08-17T11:56:47.983Z,100281.31
2022-08-17T11:59:51.907Z,100276.31
2022-08-17T12:02:45.589Z,100277.41
2022-08-17T12:05:34.451Z,100285.97
2022-08-17T12:08:19.051Z,100295.03
2022-08-17T12:11:00.091Z,100300.25
2022-08-17T12:13:38.539Z,100289.19
2022-08-17T12:16:07.382Z,100283.56
2022-08-17T12:18:36.745Z,100286.97
2022-08-17T12:21:28.695Z,100287.59
2022-08-17T12:24:00.319Z,100296.34
2022-08-17T12:26:31.406Z,100301.22
2022-08-17T12:29:01.141Z,100299.09
2022-08-17T12:31:30.861Z,100294.22
2022-08-17T12:33:58.960Z,100292.88
2022-08-17T12:36:27.680Z,100288.25
2022-08-17T12:38:57.571Z,100285.00
2022-08-17T12:41:37.099Z,100276.78
2022-08-17T12:44:06.104Z,100272.72
2022-08-17T12:46:44.407Z,100281.72
2022-08-17T12:49:20.123Z,100286.00
2022-08-17T12:51:47.668Z,100281.88
2022-08-17T12:54:29.278Z,100282.06
2022-08-17T12:56:57.284Z,100285.28
2022-08-17T12:59:29.803Z,100277.06
2022-08-17T13:01:57.805Z,100278.09
2022-08-17T13:04:26.498Z,100266.56
2022-08-17T13:06:59.790Z,100264.16
2022-08-17T13:09:35.290Z,100259.13
2022-08-17T13:12:03.270Z,100267.25
2022-08-17T13:14:33.347Z,100276.59
2022-08-17T13:17:02.164Z,100265.88
2022-08-17T13:19:40.687Z,100269.22
2022-08-17T13:22:11.750Z,100266.91
2022-08-17T13:24:48.360Z,100271.19
2022-08-17T13:27:15.054Z,100271.88
2022-08-17T13:29:51.270Z,100276.66
2022-08-17T13:32:21.906Z,100272.63
2022-08-17T13:35:14.910Z,100266.38
2022-08-17T13:37:38.322Z,100277.09
2022-08-17T13:40:35.507Z,100264.53
2022-08-17T13:43:02.722Z,100260.41
2022-08-17T13:45:43.590Z,100249.34
2022-08-17T13:48:19.335Z,100241.59
2022-08-17T13:51:03.211Z,100248.31
2022-08-17T13:53:32.990Z,100247.25
2022-08-17T13:56:02.244Z,100243.84
2022-08-17T13:58:34.222Z,100250.47
2022-08-17T14:01:28.621Z,100249.06
2022-08-17T14:03:55.500Z,100256.09
2022-08-17T14:06:51.820Z,100252.44
2022-08-17T14:09:12.259Z,100235.84
2022-08-17T14:11:38.860Z,100237.72
2022-08-17T14:14:05.500Z,100254.75
2022-08-17T14:16:32.121Z,100254.19
2022-08-17T14:18:58.854Z,100251.19
2022-08-17T14:21:26.818Z,100242.47
2022-08-17T14:23:54.911Z,100241.38
2022-08-17T14:26:21.767Z,100251.72
2022-08-17T14:28:56.303Z,100240.00
2022-08-17T14:31:23.630Z,100242.19
2022-08-17T14:33:50.214Z,100252.47
2022-08-17T14:36:16.860Z,100247.38
2022-08-17T14:38:45.012Z,100247.38
2022-08-17T14:41:11.761Z,100236.47
2022-08-17T14:43:38.325Z,100236.75
2022-08-17T14:46:05.143Z,100237.22
2022-08-17T14:48:31.699Z,100239.34
2022-08-17T14:50:58.459Z,100232.47
2022-08-17T14:53:25.053Z,100235.91
2022-08-17T14:55:53.103Z,100230.50
2022-08-17T14:58:19.688Z,100232.34
2022-08-17T15:00:46.430Z,100248.09
2022-08-17T15:03:13.001Z,100225.06
2022-08-17T15:05:40.136Z,100235.13
2022-08-17T15:08:07.997Z,100234.84
2022-08-17T15:10:36.121Z,100231.69
2022-08-17T15:13:04.050Z,100236.53
2022-08-17T15:15:31.106Z,100227.19
2022-08-17T15:17:58.253Z,100238.28
2022-08-17T15:20:27.705Z,100246.34
2022-08-17T15:22:56.097Z,100223.03
2022-08-17T15:25:24.169Z,100231.81
2022-08-17T15:27:50.993Z,100229.38
2022-08-17T15:30:20.173Z,100218.47
2022-08-17T15:32:54.274Z,100240.72
2022-08-17T15:35:27.930Z,100238.66
2022-08-17T15:37:56.246Z,100234.75
2022-08-17T15:40:22.807Z,100241.53
2022-08-17T15:42:49.463Z,100225.78
2022-08-17T15:45:16.027Z,100238.31
2022-08-17T15:47:44.326Z,100240.84
2022-08-17T15:50:11.049Z,100246.44
2022-08-17T15:52:37.697Z,100235.91
2022-08-17T15:55:06.570Z,100234.97
2022-08-17T15:57:33.259Z,100233.44
2022-08-17T15:59:59.900Z,100226.44
2022-08-17T16:03:15.878Z,100233.88
2022-08-17T16:05:24.073Z,100241.06
2022-08-17T16:07:51.743Z,100238.78
2022-08-17T16:10:19.437Z,100243.41
2022-08-17T16:12:47.574Z,100244.28
2022-08-17T16:15:15.053Z,100243.34
2022-08-17T16:17:41.701Z,100240.09
2022-08-17T16:20:09.283Z,100241.41
2022-08-17T16:22:49.991Z,100248.63
2022-08-17T16:25:17.778Z,100243.25
2022-08-17T16:27:45.379Z,100249.78
2022-08-17T16:30:17.375Z,100234.19
2022-08-17T16:32:44.927Z,100240.78
2022-08-17T16:35:13.125Z,100236.97
2022-08-17T16:37:39.744Z,100230.56
2022-08-17T16:40:11.058Z,100225.75
2022-08-17T16:42:38.846Z,100209.09
2022-08-17T16:45:08.532Z,100227.63
2022-08-17T16:47:35.768Z,100225.84
2022-08-17T16:50:02.493Z,100241.25
2022-08-17T16:52:32.398Z,100217.72
2022-08-17T16:55:01.324Z,100239.72
2022-08-17T16:57:29.959Z,100242.44
2022-08-17T16:59:56.966Z,100226.91
2022-08-17T17:02:28.716Z,100235.50
2022-08-17T17:05:01.960Z,100231.94
2022-08-17T17:07:44.064Z,100217.72
2022-08-17T17:10:14.252Z,100227.78
2022-08-17T17:13:02.870Z,100221.75
2022-08-17T17:15:42.803Z,100217.44
2022-08-17T17:18:12.525Z,100237.97
2022-08-17T17:20:45.692Z,100242.13
2022-08-17T17:23:27.883Z,100235.34
2022-08-17T17:26:02.892Z,100245.75
2022-08-17T17:28:37.929Z,100248.84
2022-08-17T17:31:13.706Z,100245.63
2022-08-17T17:33:44.496Z,100247.75
2022-08-17T17:36:23.734Z,100252.25
2022-08-17T17:38:54.078Z,100253.34
2022-08-17T17:41:26.493Z,100255.19
2022-08-17T17:44:01.892Z,100259.22
2022-08-17T17:46:35.026Z,100256.59
2022-08-17T17:49:01.704Z,100259.34
2022-08-17T17:52:03.658Z,100268.06
2022-08-17T17:54:38.082Z,100271.84
2022-08-17T17:57:15.168Z,100280.50
2022-08-17T17:59:55.074Z,100287.81
2022-08-17T18:02:35.384Z,100280.88
2022-08-17T18:05:08.531Z,100292.22
2022-08-17T18:07:42.682Z,100286.44
2022-08-17T18:10:29.603Z,100293.69
2022-08-17T18:13:10.354Z,100288.34
2022-08-17T18:15:44.879Z,100290.16
2022-08-17T18:18:34.174Z,100285.56
2022-08-17T18:21:03.560Z,100293.69
2022-08-17T18:23:30.131Z,100285.16
2022-08-17T18:25:57.438Z,100287.22
2022-08-17T18:28:28.031Z,100294.09
2022-08-17T18:31:15.643Z,100294.97
2022-08-17T18:33:44.413Z,100297.72
2022-08-17T18:36:11.930Z,100282.25
2022-08-17T18:38:40.533Z,100296.00
2022-08-17T18:41:18.584Z,100300.00
2022-08-17T18:43:57.514Z,100300.84
2022-08-17T18:46:32.913Z,100311.34
2022-08-17T18:49:01.986Z,100313.53
2022-08-17T18:51:40.816Z,100317.56
2022-08-17T18:54:17.792Z,100315.56
2022-08-17T18:56:49.778Z,100321.19
2022-08-17T18:59:27.291Z,100324.16
2022-08-17T19:02:09.965Z,100321.72
2022-08-17T19:04:41.790Z,100331.84
2022-08-17T19:07:23.551Z,100339.84
2022-08-17T19:09:53.964Z,100337.38
2022-08-17T19:12:27.369Z,100341.69
2022-08-17T19:14:56.402Z,100333.94
2022-08-17T19:17:30.619Z,100367.16
2022-08-17T19:20:02.192Z,100364.06
2022-08-17T19:22:44.507Z,100365.56
2022-08-17T19:25:16.112Z,100374.53
2022-08-17T19:27:50.282Z,100377.81
2022-08-17T19:30:17.684Z,100370.94
2022-08-17T19:32:45.778Z,100388.50
2022-08-17T19:35:17.399Z,100378.47
2022-08-17T19:37:57.730Z,100373.09
2022-08-17T19:44:00.770Z,100365.44
2022-08-17T19:46:35.632Z,100380.00
2022-08-17T19:49:13.941Z,100380.50
2022-08-17T19:51:47.400Z,100379.97
2022-08-17T19:54:22.149Z,100390.16
2022-08-17T19:56:59.164Z,100388.97
2022-08-17T19:59:44.379Z,100388.44
2022-08-17T20:02:30.542Z,100380.66
2022-08-17T20:05:01.571Z,100388.94
2022-08-17T20:07:37.056Z,100391.06
2022-08-17T20:10:08.413Z,100379.53
2022-08-17T20:12:36.018Z,100389.31
2022-08-17T20:15:08.567Z,100385.41
2022-08-17T20:17:37.519Z,100396.19
2022-08-17T20:20:26.002Z,100385.66
2022-08-17T20:23:02.350Z,100401.59
2022-08-17T20:25:36.276Z,100410.50
2022-08-17T20:28:15.195Z,100396.09
2022-08-17T20:30:43.428Z,100418.41
2022-08-17T20:33:24.190Z,100419.88
2022-08-17T20:36:11.711Z,100427.13
2022-08-17T20:38:42.510Z,100410.84
2022-08-17T20:41:12.641Z,100412.69
2022-08-17T20:43:49.070Z,100431.06
2022-08-17T20:46:51.586Z,100430.00
2022-08-17T20:49:24.718Z,100419.50
2022-08-17T20:52:00.582Z,100413.28
2022-08-17T20:54:42.947Z,100413.09
2022-08-17T20:57:30.037Z,100414.50
2022-08-17T21:00:02.778Z,100389.13
2022-08-17T21:02:29.635Z,100415.53
2022-08-17T21:05:07.208Z,100416.59
2022-08-17T21:07:53.125Z,100418.84
2022-08-17T21:10:32.019Z,100425.22
2022-08-17T21:13:19.859Z,100411.19
2022-08-17T21:15:51.605Z,100429.50
2022-08-17T21:18:27.390Z,100431.97
2022-08-17T21:21:08.655Z,100431.09
2022-08-17T21:23:58.363Z,100439.13
2022-08-17T21:26:32.738Z,100442.00
2022-08-17T21:29:17.844Z,100439.66
2022-08-17T21:32:19.252Z,100462.75
2022-08-17T21:35:23.408Z,100466.03
2022-08-17T21:37:53.066Z,100462.72
2022-08-17T21:40:25.990Z,100462.91
2022-08-17T21:42:55.382Z,100456.50
2022-08-17T21:45:26.419Z,100466.94
2022-08-17T21:48:09.376Z,100451.25
2022-08-17T21:50:36.746Z,100460.91
2022-08-17T21:53:05.041Z,100452.03
2022-08-17T21:55:36.127Z,100446.44
2022-08-17T21:58:13.597Z,100420.13
2022-08-17T22:00:41.113Z,100438.16
2022-08-17T22:03:22.834Z,100446.22
2022-08-17T22:05:49.549Z,100451.50
2022-08-17T22:08:20.169Z,100456.75
2022-08-17T22:10:49.035Z,100466.81
2022-08-17T22:13:22.331Z,100464.72
2022-08-17T22:16:15.454Z,100461.16
2022-08-17T22:18:54.761Z,100471.69
2022-08-17T22:21:22.595Z,100476.22
2022-08-17T22:24:04.201Z,100468.50
2022-08-17T22:27:01.726Z,100479.66
2022-08-17T22:29:53.335Z,100480.44
2022-08-17T22:32:34.374Z,100465.00
2022-08-17T22:35:29.049Z,100475.25
2022-08-17T22:37:56.257Z,100483.94
2022-08-17T22:40:28.857Z,100472.38
2022-08-17T22:42:58.015Z,100479.16
2022-08-17T22:45:25.877Z,100466.66
2022-08-17T22:47:55.267Z,100480.34
2022-08-17T22:50:24.227Z,100482.59
2022-08-17T22:52:59.594Z,100477.81
2022-08-17T22:55:27.680Z,100482.53
2022-08-17T22:57:54.310Z,100482.69
2022-08-17T23:00:31.535Z,100476.34
2022-08-17T23:03:11.963Z,100482.69
2022-08-17T23:05:40.846Z,100485.13
2022-08-17T23:08:07.709Z,100482.00
2022-08-17T23:10:34.325Z,100482.19
2022-08-17T23:13:00.955Z,100474.44
2022-08-17T23:15:29.048Z,100484.03
2022-08-17T23:17:55.689Z,100483.03
2022-08-17T23:20:22.325Z,100483.34
2022-08-17T23:22:52.163Z,100482.53
2022-08-17T23:25:25.587Z,100466.16
2022-08-17T23:27:52.509Z,100484.94
2022-08-17T23:30:19.362Z,100484.50
2022-08-17T23:32:47.454Z,100483.84
2022-08-17T23:35:39.650Z,100486.44
2022-08-17T23:38:08.132Z,100489.03
2022-08-17T23:40:34.738Z,100493.47
2022-08-17T23:43:05.817Z,100493.84
2022-08-17T23:45:36.558Z,100500.56
2022-08-17T23:48:15.577Z,100498.09
2022-08-17T23:50:56.054Z,100499.47
2022-08-17T23:53:22.972Z,100496.53
2022-08-17T23:56:03.709Z,100495.25
2022-08-17T23:58:36.739Z,100486.78
